»·PEaware :: NWF568 KSMF-KCCR

NWF568 :: KSMF-KCCR

FLIGHT INFORMATION

Flight Status: Arrived
Operator: Unknown
More flights by this operator :: More flights under this callsign
Pilot: Anonymous 26047 (26047)
Aircraft: BEECH AIRCRAFT A90-E90 KING AIR
(BE9L)
More flights by this aircraft type
Origin: KSMF Sacramento Intl
United States
Destination: KCCR Buchanan
United States
More flights between these airports :: More routes between these airports
Route: SAC V6 REJOY
File this flight plan on PilotEdge
Remarks:
Altitude:
(Current/Filed)
6,000ft
Speed:
(Current/Filed)
250kts
Departed: 04-Dec-19 05:43 PM
Arrived: 04-Dec-19 06:01 PM
Distance/Time
Traveled:
48nm/0:17
Distance/Time
To Go:
Arrived

Flight Plot

Page will automatically refresh every two minutes.

Flight plan parsing failed; only flown route is shown


Map Options




Map Legend


Flown Route
Filed Route
Departure Airport
Arrival Airport
Navaid (VOR, NDB)
Fix

Horizontal Profiles

Position Reports

Time Latitude Longitude Heading Altitude Ground
Speed
04-Dec-19 17:12 38.685009 -121.596557 180 26ft 0kts
04-Dec-19 17:14 38.685009 -121.596557 180 26ft 0kts
04-Dec-19 17:14 38.685009 -121.596557 180 26ft 0kts
04-Dec-19 17:15 38.685009 -121.596557 180 26ft 0kts
04-Dec-19 17:16 38.685009 -121.596557 180 26ft 0kts
04-Dec-19 17:17 38.685009 -121.596557 179 26ft 0kts
04-Dec-19 17:18 38.685009 -121.596557 179 26ft 0kts
04-Dec-19 17:19 38.685009 -121.596557 179 26ft 0kts
04-Dec-19 17:20 38.685009 -121.596557 179 26ft 0kts
04-Dec-19 17:21 38.685009 -121.596557 179 26ft 0kts
04-Dec-19 17:22 38.685009 -121.596557 179 26ft 0kts
04-Dec-19 17:23 38.685009 -121.596557 179 26ft 0kts
04-Dec-19 17:24 38.685009 -121.596557 179 26ft 0kts
04-Dec-19 17:25 38.685009 -121.596557 179 26ft 0kts
04-Dec-19 17:26 38.685009 -121.596557 179 26ft 0kts
04-Dec-19 17:27 38.685009 -121.596557 179 26ft 0kts
04-Dec-19 17:28 38.685009 -121.596557 179 26ft 0kts
04-Dec-19 17:29 38.684723 -121.596559 180 26ft 7kts
04-Dec-19 17:30 38.684087 -121.598817 0 26ft 9kts
04-Dec-19 17:31 38.689164 -121.598781 355 26ft 22kts
04-Dec-19 17:32 38.695991 -121.598637 0 26ft 25kts
04-Dec-19 17:33 38.703833 -121.598538 358 26ft 32kts
04-Dec-19 17:34 38.707204 -121.599908 262 26ft 0kts
04-Dec-19 17:35 38.707204 -121.599908 262 26ft 0kts
04-Dec-19 17:36 38.707204 -121.599908 262 26ft 0kts
04-Dec-19 17:37 38.707204 -121.599908 262 26ft 0kts
04-Dec-19 17:38 38.707204 -121.599908 262 26ft 0kts
04-Dec-19 17:39 38.707204 -121.599908 262 26ft 0kts
04-Dec-19 17:40 38.707159 -121.600353 262 26ft 9kts
04-Dec-19 17:41 38.706629 -121.601045 183 26ft 0kts
04-Dec-19 17:42 38.691112 -121.601180 180 186ft 133kts
04-Dec-19 17:43 38.668829 -121.632472 262 1639ft 155kts
04-Dec-19 17:44 38.636277 -121.662273 193 3241ft 167kts
04-Dec-19 17:45 38.590563 -121.674344 193 4913ft 169kts
04-Dec-19 17:46 38.542760 -121.686714 193 6028ft 198kts
04-Dec-19 17:47 38.483889 -121.702395 193 6028ft 225kts
04-Dec-19 17:48 38.422304 -121.718890 193 6027ft 229kts
04-Dec-19 17:49 38.359688 -121.735648 193 6023ft 230kts
04-Dec-19 17:50 38.297105 -121.752292 193 6009ft 230kts
04-Dec-19 17:51 38.237086 -121.776073 223 6010ft 221kts
04-Dec-19 17:52 38.194985 -121.822579 222 4625ft 185kts
04-Dec-19 17:53 38.159471 -121.865662 222 3110ft 171kts
04-Dec-19 17:54 38.126145 -121.905247 223 2003ft 145kts
04-Dec-19 17:55 38.097485 -121.937635 223 2001ft 136kts
04-Dec-19 17:56 38.073179 -121.974901 237 1998ft 137kts
04-Dec-19 17:57 38.057283 -122.015469 242 1885ft 117kts
04-Dec-19 17:58 38.030209 -122.034803 198 1356ft 117kts
04-Dec-19 17:59 38.002484 -122.050014 204 369ft 108kts
04-Dec-19 18:00 37.988509 -122.058765 295 28ft 0kts
04-Dec-19 18:01 37.988509 -122.058765 295 28ft 0kts
04-Dec-19 18:02 37.988456 -122.060070 204 28ft 0kts
04-Dec-19 18:03 37.988456 -122.060070 204 28ft 0kts

Navigation Log

Ident Type
Flight plan parsing failed, navigation log unavailable